sensor_id;sensor_type;location;lat;lon;timestamp;P1;durP1;ratioP1;P2;durP2;ratioP2
75496;SDS011;64074;47.540;19.072;2023-11-22T00:02:26;31.87;;;17.93;;
75496;SDS011;64074;47.540;19.072;2023-11-22T00:05:50;35.08;;;18.50;;
75496;SDS011;64074;47.540;19.072;2023-11-22T00:09:01;37.38;;;19.50;;
75496;SDS011;64074;47.540;19.072;2023-11-22T00:12:16;38.97;;;18.70;;
75496;SDS011;64074;47.540;19.072;2023-11-22T00:15:48;36.83;;;18.80;;
75496;SDS011;64074;47.540;19.072;2023-11-22T00:19:02;34.20;;;18.77;;
75496;SDS011;64074;47.540;19.072;2023-11-22T00:22:20;37.65;;;18.65;;
75496;SDS011;64074;47.540;19.072;2023-11-22T00:25:58;35.63;;;17.80;;
75496;SDS011;64074;47.540;19.072;2023-11-22T00:29:37;34.58;;;17.38;;
75496;SDS011;64074;47.540;19.072;2023-11-22T00:32:47;34.85;;;17.45;;
75496;SDS011;64074;47.540;19.072;2023-11-22T00:36:20;31.43;;;16.30;;
75496;SDS011;64074;47.540;19.072;2023-11-22T00:39:38;34.28;;;16.50;;
75496;SDS011;64074;47.540;19.072;2023-11-22T00:42:57;30.13;;;15.27;;
75496;SDS011;64074;47.540;19.072;2023-11-22T00:46:25;29.60;;;14.73;;
75496;SDS011;64074;47.540;19.072;2023-11-22T00:49:42;27.58;;;14.68;;
75496;SDS011;64074;47.540;19.072;2023-11-22T00:52:47;29.87;;;14.80;;
75496;SDS011;64074;47.540;19.072;2023-11-22T00:56:00;29.30;;;14.88;;
75496;SDS011;64074;47.540;19.072;2023-11-22T00:59:15;27.95;;;14.70;;
75496;SDS011;64074;47.540;19.072;2023-11-22T01:02:20;30.75;;;15.98;;
75496;SDS011;64074;47.540;19.072;2023-11-22T01:05:36;29.65;;;15.85;;
75496;SDS011;64074;47.540;19.072;2023-11-22T01:08:54;29.63;;;16.60;;
75496;SDS011;64074;47.540;19.072;2023-11-22T01:12:00;32.67;;;16.60;;
75496;SDS011;64074;47.540;19.072;2023-11-22T01:15:14;29.85;;;16.80;;
75496;SDS011;64074;47.540;19.072;2023-11-22T01:18:25;31.50;;;15.85;;
75496;SDS011;64074;47.540;19.072;2023-11-22T01:21:45;29.52;;;15.70;;
75496;SDS011;64074;47.540;19.072;2023-11-22T01:25:02;28.47;;;15.57;;
75496;SDS011;64074;47.540;19.072;2023-11-22T01:28:20;27.63;;;15.40;;
75496;SDS011;64074;47.540;19.072;2023-11-22T01:31:50;29.83;;;15.52;;
75496;SDS011;64074;47.540;19.072;2023-11-22T01:35:21;29.48;;;15.15;;
75496;SDS011;64074;47.540;19.072;2023-11-22T01:38:31;29.77;;;15.05;;
75496;SDS011;64074;47.540;19.072;2023-11-22T01:41:55;26.23;;;13.57;;
75496;SDS011;64074;47.540;19.072;2023-11-22T01:45:20;25.42;;;13.40;;
75496;SDS011;64074;47.540;19.072;2023-11-22T01:48:31;27.58;;;14.13;;
75496;SDS011;64074;47.540;19.072;2023-11-22T01:51:47;25.50;;;14.00;;
75496;SDS011;64074;47.540;19.072;2023-11-22T01:55:00;26.80;;;13.65;;
75496;SDS011;64074;47.540;19.072;2023-11-22T01:58:29;25.07;;;12.77;;
75496;SDS011;64074;47.540;19.072;2023-11-22T02:01:42;25.55;;;13.10;;
75496;SDS011;64074;47.540;19.072;2023-11-22T02:05:07;20.77;;;11.45;;
75496;SDS011;64074;47.540;19.072;2023-11-22T02:08:18;21.08;;;10.60;;
75496;SDS011;64074;47.540;19.072;2023-11-22T02:11:33;20.63;;;10.50;;
75496;SDS011;64074;47.540;19.072;2023-11-22T02:15:00;14.97;;;8.30;;
75496;SDS011;64074;47.540;19.072;2023-11-22T02:18:17;16.23;;;8.70;;
75496;SDS011;64074;47.540;19.072;2023-11-22T02:21:27;17.70;;;8.65;;
75496;SDS011;64074;47.540;19.072;2023-11-22T02:24:38;15.73;;;8.02;;
75496;SDS011;64074;47.540;19.072;2023-11-22T02:27:55;19.30;;;9.07;;
75496;SDS011;64074;47.540;19.072;2023-11-22T02:31:06;15.93;;;8.70;;
75496;SDS011;64074;47.540;19.072;2023-11-22T02:34:25;16.98;;;8.45;;
75496;SDS011;64074;47.540;19.072;2023-11-22T02:37:42;17.25;;;8.15;;
75496;SDS011;64074;47.540;19.072;2023-11-22T02:41:07;18.25;;;8.52;;
75496;SDS011;64074;47.540;19.072;2023-11-22T02:44:36;17.77;;;8.43;;
75496;SDS011;64074;47.540;19.072;2023-11-22T02:47:57;21.00;;;8.43;;
75496;SDS011;64074;47.540;19.072;2023-11-22T02:51:21;19.15;;;8.05;;
75496;SDS011;64074;47.540;19.072;2023-11-22T02:54:32;20.42;;;8.85;;
75496;SDS011;64074;47.540;19.072;2023-11-22T02:57:58;21.52;;;9.10;;
75496;SDS011;64074;47.540;19.072;2023-11-22T03:01:22;17.17;;;8.25;;
75496;SDS011;64074;47.540;19.072;2023-11-22T03:04:45;17.30;;;8.87;;
75496;SDS011;64074;47.540;19.072;2023-11-22T03:08:03;17.30;;;8.50;;
75496;SDS011;64074;47.540;19.072;2023-11-22T03:11:15;16.63;;;7.57;;
75496;SDS011;64074;47.540;19.072;2023-11-22T03:14:26;28.65;;;8.18;;
75496;SDS011;64074;47.540;19.072;2023-11-22T03:17:32;16.20;;;7.90;;
75496;SDS011;64074;47.540;19.072;2023-11-22T03:20:45;14.20;;;6.87;;
75496;SDS011;64074;47.540;19.072;2023-11-22T03:23:56;18.08;;;7.72;;
75496;SDS011;64074;47.540;19.072;2023-11-22T03:27:34;17.63;;;8.38;;
75496;SDS011;64074;47.540;19.072;2023-11-22T03:30:53;24.80;;;8.45;;
75496;SDS011;64074;47.540;19.072;2023-11-22T03:34:01;23.05;;;8.95;;
75496;SDS011;64074;47.540;19.072;2023-11-22T03:37:17;25.03;;;8.53;;
75496;SDS011;64074;47.540;19.072;2023-11-22T03:40:35;21.83;;;9.13;;
75496;SDS011;64074;47.540;19.072;2023-11-22T03:43:52;38.80;;;9.32;;
75496;SDS011;64074;47.540;19.072;2023-11-22T03:47:15;36.38;;;9.95;;
75496;SDS011;64074;47.540;19.072;2023-11-22T03:50:40;23.42;;;9.77;;
75496;SDS011;64074;47.540;19.072;2023-11-22T03:54:08;20.67;;;9.63;;
75496;SDS011;64074;47.540;19.072;2023-11-22T03:57:25;20.13;;;9.52;;
75496;SDS011;64074;47.540;19.072;2023-11-22T04:00:44;25.92;;;9.75;;
75496;SDS011;64074;47.540;19.072;2023-11-22T04:04:14;20.60;;;9.55;;
75496;SDS011;64074;47.540;19.072;2023-11-22T04:07:31;22.05;;;8.73;;
75496;SDS011;64074;47.540;19.072;2023-11-22T04:10:49;18.97;;;8.80;;
75496;SDS011;64074;47.540;19.072;2023-11-22T04:14:17;19.25;;;8.15;;
75496;SDS011;64074;47.540;19.072;2023-11-22T04:17:49;18.80;;;8.32;;
75496;SDS011;64074;47.540;19.072;2023-11-22T04:21:03;19.20;;;8.90;;
75496;SDS011;64074;47.540;19.072;2023-11-22T04:24:17;19.50;;;8.82;;
75496;SDS011;64074;47.540;19.072;2023-11-22T04:27:28;17.53;;;8.17;;
75496;SDS011;64074;47.540;19.072;2023-11-22T04:30:38;14.50;;;7.50;;
75496;SDS011;64074;47.540;19.072;2023-11-22T04:34:13;15.70;;;7.65;;
75496;SDS011;64074;47.540;19.072;2023-11-22T04:37:36;17.38;;;7.95;;
75496;SDS011;64074;47.540;19.072;2023-11-22T04:40:52;16.75;;;7.90;;
75496;SDS011;64074;47.540;19.072;2023-11-22T04:44:03;16.50;;;8.77;;
75496;SDS011;64074;47.540;19.072;2023-11-22T04:47:07;18.40;;;8.57;;
75496;SDS011;64074;47.540;19.072;2023-11-22T04:50:21;17.73;;;8.35;;
75496;SDS011;64074;47.540;19.072;2023-11-22T04:53:36;17.20;;;7.97;;
75496;SDS011;64074;47.540;19.072;2023-11-22T04:56:45;17.50;;;8.80;;
75496;SDS011;64074;47.540;19.072;2023-11-22T04:59:55;17.70;;;9.07;;
75496;SDS011;64074;47.540;19.072;2023-11-22T05:03:00;19.98;;;9.98;;
75496;SDS011;64074;47.540;19.072;2023-11-22T05:06:12;19.08;;;9.70;;
75496;SDS011;64074;47.540;19.072;2023-11-22T05:09:24;21.98;;;10.55;;
75496;SDS011;64074;47.540;19.072;2023-11-22T05:12:47;20.27;;;9.90;;
75496;SDS011;64074;47.540;19.072;2023-11-22T05:16:17;19.57;;;9.57;;
75496;SDS011;64074;47.540;19.072;2023-11-22T05:19:33;19.20;;;9.55;;
75496;SDS011;64074;47.540;19.072;2023-11-22T05:22:52;19.85;;;9.27;;
75496;SDS011;64074;47.540;19.072;2023-11-22T05:26:13;20.88;;;8.05;;
75496;SDS011;64074;47.540;19.072;2023-11-22T05:29:42;15.15;;;8.13;;
75496;SDS011;64074;47.540;19.072;2023-11-22T05:33:04;14.03;;;6.73;;
75496;SDS011;64074;47.540;19.072;2023-11-22T05:36:12;11.27;;;6.38;;
75496;SDS011;64074;47.540;19.072;2023-11-22T05:39:26;14.40;;;7.60;;
75496;SDS011;64074;47.540;19.072;2023-11-22T05:42:59;11.63;;;5.65;;
75496;SDS011;64074;47.540;19.072;2023-11-22T05:50:19;13.53;;;6.10;;
75496;SDS011;64074;47.540;19.072;2023-11-22T05:53:24;10.70;;;5.45;;
75496;SDS011;64074;47.540;19.072;2023-11-22T05:56:33;11.43;;;5.68;;
75496;SDS011;64074;47.540;19.072;2023-11-22T05:59:39;15.80;;;5.57;;
75496;SDS011;64074;47.540;19.072;2023-11-22T06:02:53;10.82;;;5.53;;
75496;SDS011;64074;47.540;19.072;2023-11-22T06:06:14;15.60;;;5.87;;
75496;SDS011;64074;47.540;19.072;2023-11-22T06:09:27;13.75;;;5.63;;
75496;SDS011;64074;47.540;19.072;2023-11-22T06:12:37;11.65;;;5.72;;
75496;SDS011;64074;47.540;19.072;2023-11-22T06:15:58;10.88;;;5.25;;
75496;SDS011;64074;47.540;19.072;2023-11-22T06:19:32;11.68;;;5.78;;
75496;SDS011;64074;47.540;19.072;2023-11-22T06:22:42;10.93;;;5.23;;
75496;SDS011;64074;47.540;19.072;2023-11-22T06:25:58;9.95;;;5.10;;
75496;SDS011;64074;47.540;19.072;2023-11-22T06:29:02;9.85;;;4.68;;
75496;SDS011;64074;47.540;19.072;2023-11-22T06:32:11;13.27;;;6.35;;
75496;SDS011;64074;47.540;19.072;2023-11-22T06:35:22;11.13;;;5.70;;
75496;SDS011;64074;47.540;19.072;2023-11-22T06:38:36;9.67;;;5.00;;
75496;SDS011;64074;47.540;19.072;2023-11-22T06:41:47;10.35;;;5.22;;
75496;SDS011;64074;47.540;19.072;2023-11-22T06:45:07;8.50;;;4.68;;
75496;SDS011;64074;47.540;19.072;2023-11-22T06:48:27;10.10;;;5.65;;
75496;SDS011;64074;47.540;19.072;2023-11-22T06:51:54;9.98;;;5.40;;
75496;SDS011;64074;47.540;19.072;2023-11-22T06:55:08;8.40;;;4.67;;
75496;SDS011;64074;47.540;19.072;2023-11-22T06:58:44;9.85;;;5.10;;
75496;SDS011;64074;47.540;19.072;2023-11-22T07:01:58;10.40;;;5.10;;
75496;SDS011;64074;47.540;19.072;2023-11-22T07:05:12;20.05;;;9.50;;
75496;SDS011;64074;47.540;19.072;2023-11-22T07:08:51;10.88;;;6.15;;
75496;SDS011;64074;47.540;19.072;2023-11-22T07:12:03;11.37;;;5.60;;
75496;SDS011;64074;47.540;19.072;2023-11-22T07:15:13;9.65;;;5.85;;
75496;SDS011;64074;47.540;19.072;2023-11-22T07:18:25;14.00;;;5.60;;
75496;SDS011;64074;47.540;19.072;2023-11-22T07:21:45;9.88;;;5.28;;
75496;SDS011;64074;47.540;19.072;2023-11-22T07:25:15;8.70;;;5.05;;
75496;SDS011;64074;47.540;19.072;2023-11-22T07:28:50;11.27;;;6.17;;
75496;SDS011;64074;47.540;19.072;2023-11-22T07:32:03;10.95;;;6.20;;
75496;SDS011;64074;47.540;19.072;2023-11-22T07:35:17;11.13;;;5.95;;
75496;SDS011;64074;47.540;19.072;2023-11-22T07:38:49;13.00;;;6.18;;
75496;SDS011;64074;47.540;19.072;2023-11-22T07:41:59;12.02;;;6.40;;
75496;SDS011;64074;47.540;19.072;2023-11-22T07:45:13;13.53;;;6.70;;
75496;SDS011;64074;47.540;19.072;2023-11-22T07:48:42;12.98;;;6.60;;
75496;SDS011;64074;47.540;19.072;2023-11-22T07:51:58;13.07;;;6.47;;
75496;SDS011;64074;47.540;19.072;2023-11-22T07:55:24;16.23;;;7.60;;
75496;SDS011;64074;47.540;19.072;2023-11-22T07:58:49;18.88;;;7.07;;
75496;SDS011;64074;47.540;19.072;2023-11-22T08:02:07;10.33;;;5.70;;
75496;SDS011;64074;47.540;19.072;2023-11-22T08:05:44;9.73;;;5.30;;
75496;SDS011;64074;47.540;19.072;2023-11-22T08:09:04;11.43;;;6.20;;
75496;SDS011;64074;47.540;19.072;2023-11-22T08:12:13;11.63;;;6.10;;
75496;SDS011;64074;47.540;19.072;2023-11-22T08:15:25;11.48;;;6.00;;
75496;SDS011;64074;47.540;19.072;2023-11-22T08:18:48;12.07;;;5.90;;
75496;SDS011;64074;47.540;19.072;2023-11-22T08:22:20;15.32;;;8.07;;
75496;SDS011;64074;47.540;19.072;2023-11-22T08:25:33;12.93;;;7.25;;
75496;SDS011;64074;47.540;19.072;2023-11-22T08:28:51;13.20;;;6.72;;
75496;SDS011;64074;47.540;19.072;2023-11-22T08:32:16;12.90;;;6.97;;
75496;SDS011;64074;47.540;19.072;2023-11-22T08:35:31;16.03;;;6.77;;
75496;SDS011;64074;47.540;19.072;2023-11-22T08:38:54;10.73;;;6.13;;
75496;SDS011;64074;47.540;19.072;2023-11-22T08:42:05;11.43;;;6.43;;
75496;SDS011;64074;47.540;19.072;2023-11-22T08:45:20;11.45;;;6.88;;
75496;SDS011;64074;47.540;19.072;2023-11-22T08:48:40;15.35;;;7.30;;
75496;SDS011;64074;47.540;19.072;2023-11-22T08:52:02;12.10;;;6.60;;
75496;SDS011;64074;47.540;19.072;2023-11-22T08:55:24;10.98;;;6.30;;
75496;SDS011;64074;47.540;19.072;2023-11-22T08:59:04;13.18;;;6.20;;
75496;SDS011;64074;47.540;19.072;2023-11-22T09:02:35;10.13;;;5.75;;
75496;SDS011;64074;47.540;19.072;2023-11-22T09:05:57;10.15;;;5.47;;
75496;SDS011;64074;47.540;19.072;2023-11-22T09:09:09;10.70;;;5.57;;
75496;SDS011;64074;47.540;19.072;2023-11-22T09:12:31;9.07;;;5.60;;
75496;SDS011;64074;47.540;19.072;2023-11-22T09:15:45;9.65;;;6.00;;
75496;SDS011;64074;47.540;19.072;2023-11-22T09:19:00;9.43;;;5.57;;
75496;SDS011;64074;47.540;19.072;2023-11-22T09:22:17;9.00;;;5.45;;
75496;SDS011;64074;47.540;19.072;2023-11-22T09:25:38;9.17;;;5.30;;
75496;SDS011;64074;47.540;19.072;2023-11-22T09:29:13;7.28;;;4.28;;
75496;SDS011;64074;47.540;19.072;2023-11-22T09:32:30;8.43;;;5.00;;
75496;SDS011;64074;47.540;19.072;2023-11-22T09:35:55;8.15;;;4.55;;
75496;SDS011;64074;47.540;19.072;2023-11-22T09:39:53;9.00;;;4.95;;
75496;SDS011;64074;47.540;19.072;2023-11-22T09:43:09;7.77;;;4.83;;
75496;SDS011;64074;47.540;19.072;2023-11-22T09:46:50;10.18;;;5.60;;
75496;SDS011;64074;47.540;19.072;2023-11-22T09:53:55;8.63;;;5.15;;
75496;SDS011;64074;47.540;19.072;2023-11-22T09:57:24;9.68;;;5.07;;
75496;SDS011;64074;47.540;19.072;2023-11-22T10:01:01;8.37;;;5.10;;
75496;SDS011;64074;47.540;19.072;2023-11-22T10:04:20;8.50;;;5.05;;
75496;SDS011;64074;47.540;19.072;2023-11-22T10:07:33;7.90;;;4.70;;
75496;SDS011;64074;47.540;19.072;2023-11-22T10:10:46;8.00;;;5.05;;
75496;SDS011;64074;47.540;19.072;2023-11-22T10:14:10;6.65;;;4.15;;
75496;SDS011;64074;47.540;19.072;2023-11-22T10:17:33;6.70;;;4.03;;
75496;SDS011;64074;47.540;19.072;2023-11-22T10:20:43;6.07;;;4.05;;
75496;SDS011;64074;47.540;19.072;2023-11-22T10:24:02;7.18;;;4.85;;
75496;SDS011;64074;47.540;19.072;2023-11-22T10:27:16;8.07;;;3.95;;
75496;SDS011;64074;47.540;19.072;2023-11-22T10:30:34;7.05;;;4.30;;
75496;SDS011;64074;47.540;19.072;2023-11-22T10:34:08;10.77;;;5.83;;
75496;SDS011;64074;47.540;19.072;2023-11-22T10:37:33;14.73;;;8.05;;
75496;SDS011;64074;47.540;19.072;2023-11-22T10:41:25;17.10;;;8.65;;
75496;SDS011;64074;47.540;19.072;2023-11-22T10:44:57;13.88;;;6.88;;
75496;SDS011;64074;47.540;19.072;2023-11-22T10:48:16;14.40;;;7.60;;
75496;SDS011;64074;47.540;19.072;2023-11-22T10:51:49;11.10;;;6.50;;
75496;SDS011;64074;47.540;19.072;2023-11-22T10:55:00;14.02;;;8.18;;
75496;SDS011;64074;47.540;19.072;2023-11-22T10:58:21;12.90;;;7.30;;
75496;SDS011;64074;47.540;19.072;2023-11-22T11:01:47;11.95;;;6.97;;
75496;SDS011;64074;47.540;19.072;2023-11-22T11:05:16;13.35;;;7.30;;
75496;SDS011;64074;47.540;19.072;2023-11-22T11:08:31;14.77;;;5.93;;
75496;SDS011;64074;47.540;19.072;2023-11-22T11:12:15;13.65;;;7.18;;
75496;SDS011;64074;47.540;19.072;2023-11-22T11:15:27;10.98;;;6.35;;
75496;SDS011;64074;47.540;19.072;2023-11-22T11:18:54;12.70;;;6.70;;
75496;SDS011;64074;47.540;19.072;2023-11-22T11:22:09;14.20;;;7.50;;
75496;SDS011;64074;47.540;19.072;2023-11-22T11:25:22;16.67;;;8.33;;
75496;SDS011;64074;47.540;19.072;2023-11-22T11:28:46;15.68;;;8.27;;
75496;SDS011;64074;47.540;19.072;2023-11-22T11:32:04;16.00;;;8.38;;
75496;SDS011;64074;47.540;19.072;2023-11-22T11:39:06;22.02;;;10.65;;
75496;SDS011;64074;47.540;19.072;2023-11-22T11:42:25;15.60;;;7.50;;
75496;SDS011;64074;47.540;19.072;2023-11-22T11:45:39;17.23;;;7.85;;
75496;SDS011;64074;47.540;19.072;2023-11-22T11:48:56;12.73;;;7.15;;
75496;SDS011;64074;47.540;19.072;2023-11-22T11:52:08;17.20;;;8.32;;
75496;SDS011;64074;47.540;19.072;2023-11-22T11:55:21;14.25;;;7.18;;
75496;SDS011;64074;47.540;19.072;2023-11-22T11:58:43;12.07;;;6.53;;
75496;SDS011;64074;47.540;19.072;2023-11-22T12:01:59;13.95;;;6.95;;
75496;SDS011;64074;47.540;19.072;2023-11-22T12:05:40;13.48;;;6.93;;
75496;SDS011;64074;47.540;19.072;2023-11-22T12:09:23;21.65;;;10.20;;
75496;SDS011;64074;47.540;19.072;2023-11-22T12:12:51;16.67;;;8.48;;
75496;SDS011;64074;47.540;19.072;2023-11-22T12:16:09;21.90;;;8.80;;
75496;SDS011;64074;47.540;19.072;2023-11-22T12:19:24;17.13;;;8.35;;
75496;SDS011;64074;47.540;19.072;2023-11-22T12:22:42;25.60;;;9.80;;
75496;SDS011;64074;47.540;19.072;2023-11-22T12:25:56;18.25;;;9.57;;
75496;SDS011;64074;47.540;19.072;2023-11-22T12:29:06;16.67;;;8.57;;
75496;SDS011;64074;47.540;19.072;2023-11-22T12:32:23;18.60;;;9.30;;
75496;SDS011;64074;47.540;19.072;2023-11-22T12:35:46;19.63;;;9.32;;
75496;SDS011;64074;47.540;19.072;2023-11-22T12:39:02;20.80;;;9.95;;
75496;SDS011;64074;47.540;19.072;2023-11-22T12:42:14;23.73;;;10.65;;
75496;SDS011;64074;47.540;19.072;2023-11-22T12:45:25;21.88;;;10.23;;
75496;SDS011;64074;47.540;19.072;2023-11-22T12:49:05;19.50;;;10.07;;
75496;SDS011;64074;47.540;19.072;2023-11-22T12:52:16;18.27;;;9.85;;
75496;SDS011;64074;47.540;19.072;2023-11-22T12:55:43;22.50;;;10.38;;
75496;SDS011;64074;47.540;19.072;2023-11-22T12:59:10;21.33;;;11.40;;
75496;SDS011;64074;47.540;19.072;2023-11-22T13:03:04;25.73;;;14.30;;
75496;SDS011;64074;47.540;19.072;2023-11-22T13:06:40;23.53;;;11.37;;
75496;SDS011;64074;47.540;19.072;2023-11-22T13:09:53;22.92;;;10.98;;
75496;SDS011;64074;47.540;19.072;2023-11-22T13:13:30;21.38;;;10.77;;
75496;SDS011;64074;47.540;19.072;2023-11-22T13:16:40;18.50;;;10.10;;
75496;SDS011;64074;47.540;19.072;2023-11-22T13:19:51;20.35;;;12.15;;
75496;SDS011;64074;47.540;19.072;2023-11-22T13:23:23;21.10;;;11.97;;
75496;SDS011;64074;47.540;19.072;2023-11-22T13:26:43;21.40;;;11.20;;
75496;SDS011;64074;47.540;19.072;2023-11-22T13:29:57;21.35;;;11.73;;
75496;SDS011;64074;47.540;19.072;2023-11-22T13:33:06;20.70;;;11.95;;
75496;SDS011;64074;47.540;19.072;2023-11-22T13:36:16;21.67;;;11.95;;
75496;SDS011;64074;47.540;19.072;2023-11-22T13:39:34;24.47;;;12.93;;
75496;SDS011;64074;47.540;19.072;2023-11-22T13:42:44;22.15;;;11.75;;
75496;SDS011;64074;47.540;19.072;2023-11-22T13:45:55;21.45;;;11.38;;
75496;SDS011;64074;47.540;19.072;2023-11-22T13:49:03;21.08;;;10.90;;
75496;SDS011;64074;47.540;19.072;2023-11-22T13:52:16;21.17;;;11.30;;
75496;SDS011;64074;47.540;19.072;2023-11-22T13:55:29;18.37;;;10.17;;
75496;SDS011;64074;47.540;19.072;2023-11-22T13:58:48;19.23;;;10.50;;
75496;SDS011;64074;47.540;19.072;2023-11-22T14:01:52;20.95;;;9.88;;
75496;SDS011;64074;47.540;19.072;2023-11-22T14:05:04;17.38;;;9.82;;
75496;SDS011;64074;47.540;19.072;2023-11-22T14:08:16;18.33;;;9.98;;
75496;SDS011;64074;47.540;19.072;2023-11-22T14:11:30;19.07;;;9.93;;
75496;SDS011;64074;47.540;19.072;2023-11-22T14:15:15;18.67;;;9.35;;
75496;SDS011;64074;47.540;19.072;2023-11-22T14:18:22;16.42;;;9.00;;
75496;SDS011;64074;47.540;19.072;2023-11-22T14:21:32;17.80;;;9.48;;
75496;SDS011;64074;47.540;19.072;2023-11-22T14:24:45;16.70;;;9.23;;
75496;SDS011;64074;47.540;19.072;2023-11-22T14:28:10;15.30;;;8.37;;
75496;SDS011;64074;47.540;19.072;2023-11-22T14:31:21;16.52;;;8.70;;
75496;SDS011;64074;47.540;19.072;2023-11-22T14:34:28;17.98;;;8.80;;
75496;SDS011;64074;47.540;19.072;2023-11-22T14:37:36;19.02;;;8.90;;
75496;SDS011;64074;47.540;19.072;2023-11-22T14:40:50;16.80;;;8.85;;
75496;SDS011;64074;47.540;19.072;2023-11-22T14:43:58;15.43;;;8.70;;
75496;SDS011;64074;47.540;19.072;2023-11-22T14:47:08;16.02;;;8.00;;
75496;SDS011;64074;47.540;19.072;2023-11-22T14:50:25;17.33;;;8.18;;
75496;SDS011;64074;47.540;19.072;2023-11-22T14:53:41;14.15;;;8.02;;
75496;SDS011;64074;47.540;19.072;2023-11-22T14:56:53;14.60;;;7.78;;
75496;SDS011;64074;47.540;19.072;2023-11-22T15:00:09;14.63;;;7.23;;
75496;SDS011;64074;47.540;19.072;2023-11-22T15:03:19;13.15;;;7.30;;
75496;SDS011;64074;47.540;19.072;2023-11-22T15:06:28;13.13;;;7.45;;
75496;SDS011;64074;47.540;19.072;2023-11-22T15:09:38;17.75;;;7.28;;
75496;SDS011;64074;47.540;19.072;2023-11-22T15:12:56;14.55;;;6.90;;
75496;SDS011;64074;47.540;19.072;2023-11-22T15:16:13;12.00;;;6.80;;
75496;SDS011;64074;47.540;19.072;2023-11-22T15:19:29;9.82;;;5.97;;
75496;SDS011;64074;47.540;19.072;2023-11-22T15:22:43;13.63;;;7.00;;
75496;SDS011;64074;47.540;19.072;2023-11-22T15:25:54;12.35;;;6.95;;
75496;SDS011;64074;47.540;19.072;2023-11-22T15:29:18;12.80;;;6.50;;
75496;SDS011;64074;47.540;19.072;2023-11-22T15:32:28;12.13;;;6.53;;
75496;SDS011;64074;47.540;19.072;2023-11-22T15:35:37;12.93;;;6.68;;
75496;SDS011;64074;47.540;19.072;2023-11-22T15:38:47;11.63;;;6.50;;
75496;SDS011;64074;47.540;19.072;2023-11-22T15:42:08;11.23;;;6.20;;
75496;SDS011;64074;47.540;19.072;2023-11-22T15:45:26;13.30;;;5.72;;
75496;SDS011;64074;47.540;19.072;2023-11-22T15:48:30;12.43;;;5.83;;
75496;SDS011;64074;47.540;19.072;2023-11-22T15:51:37;11.07;;;6.00;;
75496;SDS011;64074;47.540;19.072;2023-11-22T15:54:52;9.90;;;5.60;;
75496;SDS011;64074;47.540;19.072;2023-11-22T15:58:02;10.57;;;5.60;;
75496;SDS011;64074;47.540;19.072;2023-11-22T16:01:19;10.90;;;5.95;;
75496;SDS011;64074;47.540;19.072;2023-11-22T16:04:55;9.50;;;5.33;;
75496;SDS011;64074;47.540;19.072;2023-11-22T16:08:08;11.85;;;6.55;;
75496;SDS011;64074;47.540;19.072;2023-11-22T16:11:53;11.63;;;6.60;;
75496;SDS011;64074;47.540;19.072;2023-11-22T16:15:30;11.98;;;6.57;;
75496;SDS011;64074;47.540;19.072;2023-11-22T16:18:48;13.05;;;6.70;;
75496;SDS011;64074;47.540;19.072;2023-11-22T16:22:07;13.23;;;7.23;;
75496;SDS011;64074;47.540;19.072;2023-11-22T16:25:20;14.93;;;7.72;;
75496;SDS011;64074;47.540;19.072;2023-11-22T16:28:33;11.95;;;6.47;;
75496;SDS011;64074;47.540;19.072;2023-11-22T16:31:47;15.05;;;7.40;;
75496;SDS011;64074;47.540;19.072;2023-11-22T16:35:02;15.02;;;8.00;;
75496;SDS011;64074;47.540;19.072;2023-11-22T16:38:13;17.23;;;8.93;;
75496;SDS011;64074;47.540;19.072;2023-11-22T16:41:30;18.63;;;9.20;;
75496;SDS011;64074;47.540;19.072;2023-11-22T16:44:40;17.33;;;8.63;;
75496;SDS011;64074;47.540;19.072;2023-11-22T16:48:18;20.63;;;9.50;;
75496;SDS011;64074;47.540;19.072;2023-11-22T16:51:36;19.23;;;7.85;;
75496;SDS011;64074;47.540;19.072;2023-11-22T16:54:55;15.33;;;7.77;;
75496;SDS011;64074;47.540;19.072;2023-11-22T16:58:23;19.98;;;9.65;;
75496;SDS011;64074;47.540;19.072;2023-11-22T17:01:41;21.75;;;9.52;;
75496;SDS011;64074;47.540;19.072;2023-11-22T17:04:49;20.00;;;9.38;;
75496;SDS011;64074;47.540;19.072;2023-11-22T17:07:56;21.42;;;10.48;;
75496;SDS011;64074;47.540;19.072;2023-11-22T17:11:06;21.60;;;10.20;;
75496;SDS011;64074;47.540;19.072;2023-11-22T17:14:10;22.08;;;10.43;;
75496;SDS011;64074;47.540;19.072;2023-11-22T17:17:21;22.35;;;10.40;;
75496;SDS011;64074;47.540;19.072;2023-11-22T17:20:31;21.65;;;10.40;;
75496;SDS011;64074;47.540;19.072;2023-11-22T17:24:01;23.67;;;9.85;;
75496;SDS011;64074;47.540;19.072;2023-11-22T17:27:24;20.60;;;9.50;;
75496;SDS011;64074;47.540;19.072;2023-11-22T17:30:57;22.90;;;10.98;;
75496;SDS011;64074;47.540;19.072;2023-11-22T17:34:05;24.55;;;11.02;;
75496;SDS011;64074;47.540;19.072;2023-11-22T17:37:17;24.70;;;10.50;;
75496;SDS011;64074;47.540;19.072;2023-11-22T17:40:34;23.00;;;10.15;;
75496;SDS011;64074;47.540;19.072;2023-11-22T17:43:58;23.57;;;10.70;;
75496;SDS011;64074;47.540;19.072;2023-11-22T17:47:08;24.00;;;11.32;;
75496;SDS011;64074;47.540;19.072;2023-11-22T17:50:38;26.65;;;11.00;;
75496;SDS011;64074;47.540;19.072;2023-11-22T17:53:54;23.65;;;11.38;;
75496;SDS011;64074;47.540;19.072;2023-11-22T17:57:08;23.17;;;10.43;;
75496;SDS011;64074;47.540;19.072;2023-11-22T18:00:19;23.40;;;10.97;;
75496;SDS011;64074;47.540;19.072;2023-11-22T18:03:30;22.50;;;10.30;;
75496;SDS011;64074;47.540;19.072;2023-11-22T18:07:03;22.60;;;10.38;;
75496;SDS011;64074;47.540;19.072;2023-11-22T18:10:24;24.05;;;11.65;;
75496;SDS011;64074;47.540;19.072;2023-11-22T18:13:47;23.83;;;11.05;;
75496;SDS011;64074;47.540;19.072;2023-11-22T18:16:58;24.97;;;11.60;;
75496;SDS011;64074;47.540;19.072;2023-11-22T18:20:12;24.52;;;11.25;;
75496;SDS011;64074;47.540;19.072;2023-11-22T18:23:18;22.00;;;11.00;;
75496;SDS011;64074;47.540;19.072;2023-11-22T18:26:28;27.77;;;13.07;;
75496;SDS011;64074;47.540;19.072;2023-11-22T18:29:52;25.88;;;12.65;;
75496;SDS011;64074;47.540;19.072;2023-11-22T18:33:11;26.20;;;12.23;;
75496;SDS011;64074;47.540;19.072;2023-11-22T18:36:23;24.15;;;10.77;;
75496;SDS011;64074;47.540;19.072;2023-11-22T18:39:43;23.13;;;10.70;;
75496;SDS011;64074;47.540;19.072;2023-11-22T18:43:07;26.10;;;11.63;;
75496;SDS011;64074;47.540;19.072;2023-11-22T18:46:24;21.70;;;10.48;;
75496;SDS011;64074;47.540;19.072;2023-11-22T18:49:44;21.20;;;9.40;;
75496;SDS011;64074;47.540;19.072;2023-11-22T18:52:53;21.88;;;10.15;;
75496;SDS011;64074;47.540;19.072;2023-11-22T18:56:10;26.25;;;11.38;;
75496;SDS011;64074;47.540;19.072;2023-11-22T18:59:19;22.90;;;10.90;;
75496;SDS011;64074;47.540;19.072;2023-11-22T19:02:28;23.10;;;10.63;;
75496;SDS011;64074;47.540;19.072;2023-11-22T19:05:43;24.37;;;10.43;;
75496;SDS011;64074;47.540;19.072;2023-11-22T19:09:04;23.35;;;10.02;;
75496;SDS011;64074;47.540;19.072;2023-11-22T19:12:18;19.63;;;9.07;;
75496;SDS011;64074;47.540;19.072;2023-11-22T19:15:22;25.13;;;11.15;;
75496;SDS011;64074;47.540;19.072;2023-11-22T19:18:33;22.05;;;10.27;;
75496;SDS011;64074;47.540;19.072;2023-11-22T19:21:50;22.37;;;10.23;;
75496;SDS011;64074;47.540;19.072;2023-11-22T19:25:08;24.95;;;11.02;;
75496;SDS011;64074;47.540;19.072;2023-11-22T19:28:37;23.15;;;10.43;;